Wind From: 20-06-2018 11:00 Until: 22:00 warning for: Wind Level: Yellow info button
suomi:
Tuulivaroitus maa-alueille: Länsituuli on voimakasta keskipäivästä alkaen, tuulen nopeus puuskissa 15 m/s.

svenska:
Vindvarning för landområden: Från och med middagen är den västliga vinden kraftigt, i vindbyarna 15 m/s.

english:
Wind warning for land areas: From noon on, strong winds from west may bring strong gusts of 15 m/s. 


Thunder radar more information blitzortung!


Löydät sääaseman tiedot myös:

European Weather Network

Finland Weather Exchange

Weather Underground

AWEKAS



Weather Underground säähistoriasivu

Päivittäin yhteenveto Maaliskuu 21, 2017 Yksiköt:  Englantilaiset    Metriset   Molemmat
« Edellinen Päivä
Seuraava Päivä »
Päivittäin Viikoittain Kuukausittain Vuosittain Mukautettu
  Korkea: Matala: Keskiarvo:
Lämpötila: TemperatureC °F -1.4 °F 0.5 °F
Kastepiste: DewpointC °F -6.2 °F -1.7 °F
Kosteus: Humidity % 65 % 85 %
Tuulen nopeus: WindSpeedKMH mph 0.0 mph 1.5 mph
Tuulenpuuska: WindSpeedGustKMH mph - -
Tuuli:- - SSE
Ilmanpaine: PressurehPa in 988.0 in -
Sade: 0.0 in    
Historical Graphs
 
 
Taulukkotiedot Maaliskuu 21, 2017
Aika Lämpötila Kastepiste Ilmanpaine Tuuli Tuulen nopeus Tuulenpuuska Kosteus Sademäärä (tunneittain)
TemperatureC °F DewpointC °F PressurehPa in Calm     Humidity % HourlyPrecipMM in
00:00 -1.0 °F -6.0 °F 998.5 in Calm   3.2 mph 69 % 0.0 in
00:15 -0.8 °F -6.0 °F 998.5 in Calm   3.2 mph 68 % 0.0 in
00:30 -0.6 °F -6.1 °F 998.2 in Calm   3.2 mph 66 % 0.0 in
00:45 -0.4 °F -6.2 °F 998.2 in Calm   4.8 mph 65 % 0.0 in
01:00 -0.3 °F -5.9 °F 998.2 in Calm   6.4 mph 66 % 0.0 in
01:15 -0.3 °F -6.1 °F 998.2 in Calm   4.8 mph 65 % 0.0 in
01:30 -0.6 °F -6.1 °F 997.9 in Calm   3.2 mph 66 % 0.0 in
01:45 -0.8 °F -6.2 °F 997.9 in Calm   6.4 mph 67 % 0.0 in
02:00 -1.1 °F -6.0 °F 997.9 in Calm   6.4 mph 69 % 0.0 in
02:15 -1.1 °F -5.9 °F 997.9 in Calm     70 % 0.0 in
02:30 -1.3 °F -5.9 °F 997.5 in Calm   6.4 mph 71 % 0.0 in
02:45 -1.4 °F -5.4 °F 997.5 in Calm   3.2 mph 74 % 0.0 in
03:00 -1.4 °F -5.8 °F 997.5 in Calm   6.4 mph 72 % 0.0 in
03:15 -1.3 °F -5.5 °F 997.2 in Calm   4.8 mph 73 % 0.0 in
03:30 -1.2 °F -5.4 °F 997.2 in Calm   4.8 mph 73 % 0.0 in
03:45 -1.2 °F -5.3 °F 997.2 in SE 1.6 mph 6.4 mph 74 % 0.0 in
04:00 -1.1 °F -5.0 °F 997.2 in SSE 1.6 mph 9.7 mph 75 % 0.0 in
04:15 -1.1 °F -4.6 °F 996.8 in Calm     77 % 0.0 in
04:30 -0.9 °F -4.5 °F 996.8 in SSE 1.6 mph 8.0 mph 77 % 0.0 in
04:45 -0.9 °F -4.2 °F 996.5 in Calm   8.0 mph 78 % 0.0 in
05:00 -0.8 °F -4.0 °F 996.5 in Calm   4.8 mph 79 % 0.0 in
05:15 -0.8 °F -4.0 °F 996.5 in Calm   8.0 mph 79 % 0.0 in
05:30 -0.8 °F -3.8 °F 996.2 in SE 1.6 mph 11.3 mph 80 % 0.0 in
05:45 -0.8 °F -3.6 °F 996.2 in SE 1.6 mph 8.0 mph 81 % 0.0 in
06:00 -0.8 °F -3.7 °F 996.2 in Calm   6.4 mph 81 % 0.0 in
06:15 -0.8 °F -3.5 °F 996.2 in Calm   6.4 mph 82 % 0.0 in
06:30 -0.8 °F -3.3 °F 995.8 in Calm   9.7 mph 83 % 0.0 in
06:45 -0.7 °F -3.1 °F 995.8 in Calm   8.0 mph 84 % 0.0 in
07:00 -0.7 °F -2.9 °F 995.8 in Calm   6.4 mph 85 % 0.0 in
07:15 -0.6 °F -2.8 °F 995.5 in Calm   3.2 mph 85 % 0.0 in
07:30 -0.4 °F -2.5 °F 995.5 in South 1.6 mph 6.4 mph 86 % 0.0 in
07:45 -0.3 °F -2.4 °F 995.1 in SSE 1.6 mph 8.0 mph 86 % 0.0 in
08:00 -0.3 °F -2.3 °F 995.1 in Calm   8.0 mph 86 % 0.0 in
08:15 -0.1 °F -2.2 °F 995.1 in SE 1.6 mph 9.7 mph 86 % 0.0 in
08:30 0.0 °F -1.9 °F 994.8 in Calm   6.4 mph 87 % 0.0 in
08:45 0.1 °F -1.8 °F 994.8 in SE 1.6 mph 9.7 mph 87 % 0.0 in
09:00 0.3 °F -1.6 °F 994.5 in SSE 1.6 mph 11.3 mph 87 % 0.0 in
09:15 0.3 °F -1.6 °F 994.5 in Calm   9.7 mph 87 % 0.0 in
09:30 0.4 °F -1.6 °F 994.5 in ESE 1.6 mph 8.0 mph 86 % 0.0 in
09:45 0.6 °F -1.5 °F 994.1 in SE 1.6 mph 11.3 mph 86 % 0.0 in
10:00 0.7 °F -1.4 °F 994.1 in SE 1.6 mph 11.3 mph 86 % 0.0 in
10:15 0.7 °F -1.4 °F 993.8 in SE 4.8 mph 19.3 mph 86 % 0.0 in
10:30 0.9 °F -1.2 °F 993.5 in SSE 1.6 mph 9.7 mph 86 % 0.0 in
10:45 1.0 °F -1.1 °F 993.1 in South 1.6 mph 8.0 mph 86 % 0.0 in
11:00 1.1 °F -1.0 °F 993.5 in SSE 4.8 mph 17.7 mph 86 % 0.0 in
11:15 1.2 °F -0.9 °F 993.1 in SSE 1.6 mph 11.3 mph 86 % 0.0 in
11:30 1.2 °F -0.9 °F 993.1 in SE 1.6 mph 9.7 mph 86 % 0.0 in
11:45 1.3 °F -0.8 °F 992.8 in SE 1.6 mph 9.7 mph 86 % 0.0 in
12:00 1.3 °F -0.8 °F 992.8 in ESE 1.6 mph 11.3 mph 86 % 0.0 in
12:15 1.4 °F -0.7 °F 992.8 in ESE 1.6 mph 12.9 mph 86 % 0.0 in
12:30 1.4 °F -0.6 °F 992.4 in SE 1.6 mph 8.0 mph 86 % 0.0 in
12:45 1.6 °F -0.5 °F 992.1 in SE 1.6 mph 14.5 mph 86 % 0.0 in
13:00 1.6 °F -0.5 °F 992.1 in SE 1.6 mph 12.9 mph 86 % 0.0 in
13:15 1.7 °F -0.3 °F 991.8 in SE 3.2 mph 11.3 mph 87 % 0.0 in
13:30 1.6 °F -0.3 °F 991.8 in SE 1.6 mph 11.3 mph 87 % 0.0 in
13:45 1.6 °F -0.3 °F 991.4 in SE 1.6 mph 11.3 mph 87 % 0.0 in
14:00 1.7 °F -0.3 °F 991.4 in ESE 1.6 mph 9.7 mph 87 % 0.0 in
14:15 1.8 °F -0.2 °F 991.1 in East 1.6 mph 14.5 mph 87 % 0.0 in
14:30 1.8 °F -0.1 °F 991.1 in SSE 1.6 mph 9.7 mph 87 % 0.0 in
14:45 1.9 °F 0.0 °F 990.7 in Calm   6.4 mph 87 % 0.0 in
15:00 1.8 °F 0.1 °F 990.7 in SE 1.6 mph 8.0 mph 88 % 0.0 in
15:15 1.8 °F 0.2 °F 990.4 in ESE 1.6 mph 6.4 mph 89 % 0.0 in
15:30 1.8 °F 0.2 °F 990.1 in ESE 3.2 mph 12.9 mph 89 % 0.0 in
15:45 1.8 °F 0.3 °F 989.7 in ESE 1.6 mph 14.5 mph 90 % 0.0 in
16:00 1.8 °F 0.3 °F 989.4 in SE 1.6 mph 11.3 mph 90 % 0.0 in
16:15 1.6 °F 0.3 °F 989.4 in SE 1.6 mph 16.1 mph 91 % 0.0 in
16:30 1.4 °F 0.3 °F 989.4 in East 1.6 mph 8.0 mph 92 % 0.0 in
16:45 1.2 °F 0.2 °F 989.1 in East 1.6 mph 9.7 mph 93 % 0.0 in
17:00 0.9 °F 0.1 °F 988.7 in Calm   8.0 mph 94 % 0.0 in
17:15 0.8 °F 0.0 °F 988.7 in Calm   6.4 mph 94 % 0.0 in
17:30 0.9 °F 0.2 °F 988.7 in ESE 1.6 mph 9.7 mph 95 % 0.0 in
17:45 1.1 °F 0.3 °F 988.4 in SSE 3.2 mph 11.3 mph 95 % 0.0 in
18:00 1.0 °F 0.3 °F 988.4 in South 3.2 mph 11.3 mph 95 % 0.0 in
18:15 0.9 °F 0.2 °F 988.4 in SE 1.6 mph 11.3 mph 95 % 0.0 in
18:30 0.9 °F 0.2 °F 988.4 in SSE 1.6 mph 12.9 mph 95 % 0.0 in
18:45 0.9 °F 0.4 °F 988.4 in SSE 3.2 mph 9.7 mph 96 % 0.0 in
19:00 0.9 °F 0.4 °F 988.0 in SSE 1.6 mph 8.0 mph 96 % 0.0 in
19:15 1.0 °F 0.4 °F 988.4 in SSE 1.6 mph 8.0 mph 96 % 0.0 in
19:30 1.1 °F 0.5 °F 988.0 in SSE 3.2 mph 11.3 mph 96 % 0.0 in
19:45 1.2 °F 0.6 °F 988.0 in SSE 3.2 mph 14.5 mph 96 % 0.0 in
20:00 1.2 °F 0.7 °F 988.4 in SSE 4.8 mph 14.5 mph 96 % 0.0 in
20:15 1.3 °F 0.7 °F 988.4 in South 4.8 mph 12.9 mph 96 % 0.0 in
20:30 1.3 °F 0.7 °F 988.4 in South 4.8 mph 11.3 mph 96 % 0.0 in
20:45 1.3 °F 0.7 °F 988.4 in South 4.8 mph 12.9 mph 96 % 0.0 in
21:00 1.2 °F 0.7 °F 988.4 in South 1.6 mph 14.5 mph 96 % 0.0 in
21:15 1.1 °F 0.4 °F 988.4 in South 3.2 mph 12.9 mph 95 % 0.0 in
21:30 1.2 °F 0.6 °F 988.4 in South 3.2 mph 11.3 mph 96 % 0.0 in
21:45 1.2 °F 0.7 °F 988.4 in South 1.6 mph 9.7 mph 96 % 0.0 in
22:00 1.2 °F 0.7 °F 988.4 in South 3.2 mph 11.3 mph 96 % 0.0 in
22:15 1.3 °F 0.8 °F 988.4 in South 3.2 mph 11.3 mph 96 % 0.0 in
22:30 1.3 °F 0.8 °F 988.4 in SSE 1.6 mph 8.0 mph 96 % 0.0 in
22:45 1.4 °F 0.8 °F 988.0 in South 1.6 mph 6.4 mph 96 % 0.0 in
23:00 1.5 °F 0.9 °F 988.4 in SSE 1.6 mph 11.3 mph 96 % 0.0 in
23:15 1.6 °F 1.0 °F 988.4 in South 3.2 mph 8.0 mph 96 % 0.0 in
23:30 1.6 °F 1.0 °F 988.4 in South 3.2 mph 11.3 mph 96 % 0.0 in
23:45 1.6 °F 1.0 °F 988.4 in South 3.2 mph 12.9 mph 96 % 0.0 in
Esan sääasema
Terveisin Weather Underground - 2.75 mb

Alkuperäinen skripti  Jim McMurry - jmcmurry@mwt.net Sovitettu myös templatelle  Wim van der Kuil - Leuven-Template.eu

Laitteet joita käytämme:

Sääasema
Davis VP2

Sääasemaohjelma
Cumulus

Sääaseman tietokone
Asus EeePC

Palveluntarjoaja
Suncomet

Davis VP2

Cumulus

Asus EeePC

Suncomet